Time;durP1;ratioP1;P1;durP2;ratioP2;P2;SDS_P1;SDS_P2;PMS_P1;PMS_P2;Temp;Humidity;BMP_temperature;BMP_pressure;BME280_temperature;BME280_humidity;BME280_pressure;Samples;Min_cycle;Max_cycle;Signal;HPM_P1;HPM_P2
2022/10/29 00:00:33;;;;;;;1999.90;999.90;;;15.90;1.00;;;;;;4862821;29;20123;-87
2022/10/29 00:02:59;;;;;;;1999.90;999.90;;;15.90;1.00;;;;;;4863397;29;20064;-87
2022/10/29 00:05:24;;;;;;;1999.90;999.90;;;15.80;1.00;;;;;;4879274;29;20053;-87
2022/10/29 00:07:50;;;;;;;1999.90;999.90;;;15.90;80.20;;;;;;4878861;29;20053;-87
2022/10/29 00:10:16;;;;;;;1709.18;757.58;;;15.90;17.10;;;;;;4878653;29;20137;-87
2022/10/29 00:12:42;;;;;;;1999.90;999.90;;;15.90;66.00;;;;;;4879507;29;20124;-87
2022/10/29 00:15:08;;;;;;;1999.90;999.90;;;16.00;99.90;;;;;;4879345;29;20051;-88
2022/10/29 00:17:34;;;;;;;1999.90;999.90;;;15.90;99.90;;;;;;4879798;29;20409;-86
2022/10/29 00:19:59;;;;;;;1999.90;999.90;;;16.10;99.90;;;;;;4879490;29;20045;-87
2022/10/29 00:22:25;;;;;;;1999.90;999.90;;;16.10;99.90;;;;;;4879584;29;20057;-87
2022/10/29 00:24:51;;;;;;;1804.38;773.30;;;16.10;99.90;;;;;;4862747;29;20056;-87
2022/10/29 00:27:16;;;;;;;1999.90;999.90;;;16.10;99.90;;;;;;4879774;29;20049;-87
2022/10/29 00:29:42;;;;;;;1999.90;999.90;;;16.10;99.90;;;;;;4878722;29;20053;-87
2022/10/29 00:32:08;;;;;;;1999.90;999.90;;;16.00;99.90;;;;;;4880884;29;20057;-86
2022/10/29 00:34:35;;;;;;;1999.90;999.90;;;16.00;99.90;;;;;;4878480;29;20542;-87
2022/10/29 00:37:04;;;;;;;1999.90;999.90;;;15.90;99.90;;;;;;4879978;29;20414;-87
2022/10/29 00:39:32;;;;;;;1726.28;757.60;;;15.90;99.90;;;;;;4876953;29;20087;-88
2022/10/29 00:41:59;;;;;;;1999.90;999.90;;;15.90;99.90;;;;;;4862991;29;20049;-87
2022/10/29 00:44:28;;;;;;;1849.70;763.53;;;15.80;99.90;;;;;;4879163;29;20080;-87
2022/10/29 00:47:12;;;;;;;1999.90;999.90;;;15.80;99.90;;;;;;4879511;29;20075;-87
2022/10/29 00:49:39;;;;;;;1799.30;774.17;;;15.90;1.00;;;;;;4862619;29;20053;-87
2022/10/29 00:52:06;;;;;;;1999.90;999.90;;;15.90;1.00;;;;;;4879589;29;20059;-86
2022/10/29 00:54:38;;;;;;;1999.90;999.90;;;15.90;99.90;;;;;;4878092;29;20045;-87
2022/10/29 00:57:13;;;;;;;1999.90;999.90;;;15.80;99.90;;;;;;4863483;29;20409;-86
2022/10/29 00:59:40;;;;;;;1999.90;999.90;;;15.70;99.90;;;;;;4878903;29;20057;-86
2022/10/29 01:02:06;;;;;;;1999.90;999.90;;;15.70;99.90;;;;;;4879609;29;20088;-87
2022/10/29 01:04:32;;;;;;;1999.90;999.90;;;15.60;99.90;;;;;;4862301;29;20091;-88
2022/10/29 01:06:58;;;;;;;1999.90;999.90;;;15.50;99.90;;;;;;4878741;29;20566;-87
2022/10/29 01:09:24;;;;;;;1999.90;999.90;;;15.60;99.90;;;;;;4862530;29;20045;-87
2022/10/29 01:12:12;;;;;;;1999.90;999.90;;;15.60;99.90;;;;;;4862572;29;20049;-87
2022/10/29 01:15:02;;;;;;;1999.90;999.90;;;15.50;1.00;;;;;;4877279;29;20225;-87
2022/10/29 01:17:33;;;;;;;1999.90;999.90;;;15.60;1.00;;;;;;4861517;29;20060;-87
2022/10/29 01:20:17;;;;;;;1999.90;999.90;;;15.50;1.00;;;;;;4878171;29;20052;-87
2022/10/29 01:23:03;;;;;;;1999.90;999.90;;;15.50;1.00;;;;;;4862341;29;20479;-87
2022/10/29 01:25:37;;;;;;;1999.90;999.90;;;15.40;1.00;;;;;;4877778;29;20226;-88
2022/10/29 01:28:23;;;;;;;1999.90;999.90;;;15.40;1.00;;;;;;4878471;29;20192;-87
2022/10/29 01:31:08;;;;;;;1999.90;999.90;;;15.30;1.00;;;;;;4878498;29;20057;-87
2022/10/29 01:33:55;;;;;;;1999.90;999.90;;;15.20;1.00;;;;;;4878710;29;20055;-87
2022/10/29 01:36:35;;;;;;;1999.90;999.90;;;15.20;1.00;;;;;;4877906;29;20053;-87
2022/10/29 01:39:13;;;;;;;1999.90;999.90;;;15.20;1.00;;;;;;4878261;29;20064;-87
2022/10/29 01:42:20;;;;;;;1999.90;999.90;;;15.20;1.00;;;;;;4877868;29;20053;-87
2022/10/29 01:44:55;;;;;;;1999.90;999.90;;;15.10;1.00;;;;;;4877821;29;20120;-87
2022/10/29 01:47:25;;;;;;;1999.90;999.90;;;15.10;1.00;;;;;;4862067;29;20418;-87
2022/10/29 01:49:56;;;;;;;1999.90;999.90;;;15.10;1.00;;;;;;4877638;29;20415;-88
2022/10/29 01:52:26;;;;;;;1999.90;999.90;;;15.10;1.00;;;;;;4879114;29;20052;-87
2022/10/29 01:54:52;;;;;;;1999.90;999.90;;;15.10;1.00;;;;;;4878203;29;20041;-87
2022/10/29 01:57:29;;;;;;;1999.90;999.90;;;15.10;1.00;;;;;;4878444;29;20064;-87
2022/10/29 02:00:06;;;;;;;1999.90;999.90;;;15.10;1.00;;;;;;4877729;29;20194;-87
2022/10/29 02:03:06;;;;;;;1999.90;999.90;;;15.00;1.00;;;;;;4877069;29;20131;-86
2022/10/29 02:06:01;;;;;;;1999.90;999.90;;;15.00;1.00;;;;;;4877075;29;20045;-87
2022/10/29 02:08:51;;;;;;;1999.90;999.90;;;15.00;1.00;;;;;;4862113;29;20154;-87
2022/10/29 02:11:35;;;;;;;1999.90;999.90;;;14.90;31.70;;;;;;4877361;29;20053;-87
2022/10/29 02:14:11;;;;;;;1999.90;999.90;;;14.90;62.70;;;;;;4861712;29;20057;-87
2022/10/29 02:16:36;;;;;;;1999.90;999.90;;;14.80;79.00;;;;;;4861102;29;20049;-87
2022/10/29 02:19:04;;;;;;;1999.90;999.90;;;14.90;48.20;;;;;;4862084;29;20052;-87
2022/10/29 02:21:30;;;;;;;1999.90;999.90;;;14.90;72.30;;;;;;4876459;29;20460;-87
2022/10/29 02:23:55;;;;;;;1999.90;999.90;;;14.90;67.10;;;;;;4861815;29;20045;-87
2022/10/29 02:26:21;;;;;;;1999.90;999.90;;;14.80;99.90;;;;;;4876262;29;20180;-87
2022/10/29 02:28:47;;;;;;;1999.90;999.90;;;14.90;99.90;;;;;;4878471;29;20101;-87
2022/10/29 02:31:12;;;;;;;1999.90;999.90;;;14.80;99.90;;;;;;4877928;29;20048;-87
2022/10/29 02:33:38;;;;;;;1999.90;999.90;;;14.80;99.90;;;;;;4861855;29;20105;-86
2022/10/29 02:36:04;;;;;;;1999.90;999.90;;;14.80;99.90;;;;;;4877607;29;20041;-86
2022/10/29 02:38:30;;;;;;;1999.90;999.90;;;14.80;99.90;;;;;;4877853;29;20041;-86
2022/10/29 02:40:55;;;;;;;1999.90;999.90;;;14.80;99.90;;;;;;4878080;29;20542;-86
2022/10/29 02:43:21;;;;;;;1999.90;999.90;;;14.80;99.90;;;;;;4878527;29;20376;-88
2022/10/29 02:45:47;;;;;;;1999.90;999.90;;;14.80;99.90;;;;;;4876836;29;20094;-88
2022/10/29 02:48:12;;;;;;;1734.82;766.38;;;14.80;99.90;;;;;;4878459;29;20045;-86
2022/10/29 02:50:38;;;;;;;1999.90;999.90;;;14.90;99.90;;;;;;4861433;29;20064;-87
2022/10/29 02:53:03;;;;;;;1840.97;769.22;;;14.90;99.90;;;;;;4862272;29;20100;-87
2022/10/29 02:55:29;;;;;;;1418.03;147.52;;;15.00;1.00;;;;;;4878715;29;20161;-88
2022/10/29 02:57:55;;;;;;;1930.57;784.00;;;15.10;1.00;;;;;;4857269;29;20060;-87
2022/10/29 03:00:21;;;;;;;1999.90;833.05;;;15.10;1.00;;;;;;4895606;29;20089;-87
2022/10/29 03:02:50;;;;;;;1327.22;171.00;;;15.20;64.80;;;;;;4897112;29;20116;-86
2022/10/29 03:05:16;;;;;;;1999.90;999.90;;;15.30;99.90;;;;;;4897876;29;20053;-87
2022/10/29 03:07:41;;;;;;;1999.90;999.90;;;15.50;99.90;;;;;;4882883;29;20049;-86
2022/10/29 03:10:07;;;;;;;1931.15;774.47;;;15.40;99.90;;;;;;4881137;29;20053;-86
2022/10/29 03:12:33;;;;;;;1999.90;826.60;;;15.50;99.90;;;;;;4859376;29;20056;-87
2022/10/29 03:14:59;;;;;;;1999.90;816.50;;;15.50;99.90;;;;;;4895600;29;20052;-87
2022/10/29 03:17:25;;;;;;;1972.20;804.10;;;16.30;99.90;;;;;;4895292;29;20029;-87
2022/10/29 03:19:50;;;;;;;1984.18;455.92;;;15.70;99.90;;;;;;4880323;29;20084;-87
2022/10/29 03:22:16;;;;;;;1651.53;163.85;;;15.80;99.90;;;;;;4880673;29;20451;-87
2022/10/29 03:24:42;;;;;;;1423.30;212.40;;;15.80;99.90;;;;;;4880427;29;20056;-88
2022/10/29 03:27:07;;;;;;;1890.57;769.00;;;15.80;99.90;;;;;;4864266;29;20053;-87
2022/10/29 03:29:33;;;;;;;1363.40;136.55;;;15.90;99.90;;;;;;4863873;29;20079;-87
2022/10/29 03:31:59;;;;;;;1999.90;262.15;;;15.90;99.90;;;;;;4880661;29;20116;-87
2022/10/29 03:34:25;;;;;;;1999.90;818.90;;;16.00;99.90;;;;;;4864654;29;20105;-87
2022/10/29 03:36:51;;;;;;;1977.82;794.22;;;16.00;99.90;;;;;;4879445;29;20107;-87
2022/10/29 03:39:16;;;;;;;1999.90;837.53;;;16.10;99.90;;;;;;4864442;29;20060;-86
2022/10/29 03:41:42;;;;;;;1990.18;126.20;;;16.10;99.90;;;;;;4863551;29;20049;-87
2022/10/29 03:44:08;;;;;;;1831.30;778.75;;;16.10;99.90;;;;;;4880383;29;20045;-87
2022/10/29 03:46:33;;;;;;;1964.85;779.67;;;16.10;99.90;;;;;;4879241;29;20375;-87
2022/10/29 03:48:59;;;;;;;1999.90;999.90;;;16.20;99.90;;;;;;4879558;29;20053;-87
2022/10/29 03:51:25;;;;;;;1976.25;178.93;;;16.20;99.90;;;;;;4879803;29;20092;-86
2022/10/29 03:53:50;;;;;;;1999.90;999.90;;;16.20;99.90;;;;;;4879597;29;20053;-87
2022/10/29 03:56:16;;;;;;;1841.28;776.25;;;16.30;99.90;;;;;;4880061;29;20047;-88
2022/10/29 03:58:42;;;;;;;1999.90;999.90;;;16.70;99.90;;;;;;4863128;29;20400;-87
2022/10/29 04:01:09;;;;;;;1999.90;999.90;;;16.40;99.90;;;;;;4880288;29;20125;-87
2022/10/29 04:03:36;;;;;;;1999.90;999.90;;;16.40;1.00;;;;;;4880092;29;20089;-87
2022/10/29 04:06:08;;;;;;;1999.90;544.63;;;16.40;1.00;;;;;;4879768;29;20090;-87
2022/10/29 04:08:33;;;;;;;1999.90;999.90;;;16.50;1.00;;;;;;4879746;29;20065;-89
2022/10/29 04:10:59;;;;;;;1999.90;999.90;;;16.50;1.00;;;;;;4878971;29;20057;-87
2022/10/29 04:13:25;;;;;;;1999.90;999.90;;;16.50;1.00;;;;;;4879914;29;20123;-86
2022/10/29 04:15:54;;;;;;;1999.90;999.90;;;16.50;85.90;;;;;;4878699;29;20503;-87
2022/10/29 04:18:20;;;;;;;1922.40;792.85;;;16.50;95.30;;;;;;4879735;29;20060;-87
2022/10/29 04:20:46;;;;;;;1840.32;776.00;;;16.50;99.90;;;;;;4879488;29;20045;-87
2022/10/29 04:23:12;;;;;;;1988.80;785.03;;;16.60;99.90;;;;;;4880467;29;20475;-86
2022/10/29 04:25:37;;;;;;;1999.90;774.35;;;16.50;99.90;;;;;;4880236;29;20399;-87
2022/10/29 04:28:03;;;;;;;1999.90;999.90;;;16.60;99.90;;;;;;4878863;29;20053;-87
2022/10/29 04:30:29;;;;;;;1999.90;999.90;;;16.60;99.90;;;;;;4878769;29;20045;-87
2022/10/29 04:32:57;;;;;;;1999.90;999.90;;;16.70;99.90;;;;;;4878519;29;20305;-87
2022/10/29 04:35:23;;;;;;;1999.90;999.90;;;16.70;99.90;;;;;;4862576;29;20119;-87
2022/10/29 04:37:48;;;;;;;1999.90;999.90;;;16.70;99.90;;;;;;4879746;29;20097;-87
2022/10/29 04:40:14;;;;;;;1999.90;999.90;;;16.70;99.90;;;;;;4878347;29;20475;-88
2022/10/29 04:42:40;;;;;;;778.63;44.95;;;16.70;99.90;;;;;;4879696;29;20097;-88
2022/10/29 04:45:07;;;;;;;1999.90;999.90;;;16.70;99.90;;;;;;4879213;29;20127;-87
2022/10/29 04:47:33;;;;;;;1999.90;999.90;;;16.70;99.90;;;;;;4863137;29;20451;-87
2022/10/29 04:49:58;;;;;;;1999.90;999.90;;;16.80;99.90;;;;;;4878868;29;20398;-87
2022/10/29 04:52:24;;;;;;;1999.90;999.90;;;16.80;99.90;;;;;;4879221;29;20053;-87
2022/10/29 04:54:50;;;;;;;1999.90;999.90;;;16.80;99.90;;;;;;4878691;29;20080;-87
2022/10/29 04:57:16;;;;;;;1999.90;999.90;;;16.80;99.90;;;;;;4878353;29;20044;-87
2022/10/29 04:59:41;;;;;;;1999.90;999.90;;;16.90;99.90;;;;;;4878586;29;20132;-87
2022/10/29 05:02:07;;;;;;;1999.90;999.90;;;16.90;99.90;;;;;;4862559;29;20050;-87
2022/10/29 05:04:32;;;;;;;1999.90;999.90;;;16.90;99.90;;;;;;4879193;29;20052;-87
2022/10/29 05:06:58;;;;;;;1999.90;999.90;;;16.90;99.90;;;;;;4877068;29;20045;-88
2022/10/29 05:09:24;;;;;;;1999.90;999.90;;;16.90;99.90;;;;;;4862743;29;20148;-87
2022/10/29 05:11:49;;;;;;;1999.90;999.90;;;16.80;99.90;;;;;;4878579;29;20045;-87
2022/10/29 05:14:15;;;;;;;1999.90;999.90;;;16.90;1.00;;;;;;4861693;29;20448;-87
2022/10/29 05:16:41;;;;;;;1999.90;999.90;;;16.90;1.00;;;;;;4861299;29;20057;-87
2022/10/29 05:19:06;;;;;;;1999.90;999.90;;;16.90;1.00;;;;;;4877372;29;20053;-88
2022/10/29 05:21:32;;;;;;;1999.90;999.90;;;16.90;28.50;;;;;;4877929;29;20053;-87
2022/10/29 05:23:58;;;;;;;1999.90;999.90;;;16.90;50.70;;;;;;4877789;29;20052;-87
2022/10/29 05:26:23;;;;;;;1999.90;999.90;;;17.00;59.40;;;;;;4877695;29;20056;-88
2022/10/29 05:28:50;;;;;;;1999.90;999.90;;;17.00;91.40;;;;;;4861970;29;20055;-88
2022/10/29 05:31:16;;;;;;;1999.90;999.90;;;17.00;99.90;;;;;;4862069;29;20542;-84
2022/10/29 05:33:42;;;;;;;1999.90;999.90;;;17.00;99.90;;;;;;4878676;29;20053;-84
2022/10/29 05:36:08;;;;;;;1999.90;999.90;;;17.00;99.90;;;;;;4877798;29;20460;-84
2022/10/29 05:38:34;;;;;;;1999.90;999.90;;;17.10;99.90;;;;;;4877475;29;20065;-84
2022/10/29 05:41:00;;;;;;;1999.90;999.90;;;17.00;99.90;;;;;;4877957;29;20048;-84
2022/10/29 05:43:26;;;;;;;1999.90;999.90;;;17.10;99.90;;;;;;4878998;29;20088;-84
2022/10/29 05:45:51;;;;;;;1999.90;999.90;;;17.10;99.90;;;;;;4860747;29;20065;-85
2022/10/29 05:48:17;;;;;;;1999.90;999.90;;;17.10;99.90;;;;;;4877638;29;20085;-84
2022/10/29 05:50:43;;;;;;;1999.90;999.90;;;17.10;99.90;;;;;;4876079;29;20049;-88
2022/10/29 05:53:12;;;;;;;1999.90;999.90;;;17.10;99.90;;;;;;4861839;29;20049;-86
2022/10/29 05:55:38;;;;;;;1999.90;999.90;;;17.10;99.90;;;;;;4877669;29;20048;-85
2022/10/29 05:58:06;;;;;;;1999.90;999.90;;;17.10;99.90;;;;;;4878195;29;20136;-85
2022/10/29 06:00:34;;;;;;;1999.90;999.90;;;17.10;99.90;;;;;;4877721;29;20064;-86
2022/10/29 06:03:00;;;;;;;1999.90;999.90;;;17.10;99.90;;;;;;4861225;29;20173;-86
2022/10/29 06:05:26;;;;;;;1999.90;999.90;;;17.10;99.90;;;;;;4877408;29;20550;-86
2022/10/29 06:07:56;;;;;;;1999.90;999.90;;;17.10;99.90;;;;;;4877705;29;20394;-87
2022/10/29 06:10:23;;;;;;;1999.90;999.90;;;17.20;99.90;;;;;;4860897;29;20212;-86
2022/10/29 06:12:49;;;;;;;1999.90;999.90;;;17.20;1.00;;;;;;4877836;29;20060;-87
2022/10/29 06:15:15;;;;;;;1999.90;999.90;;;17.20;1.00;;;;;;4878409;29;20440;-87
2022/10/29 06:17:42;;;;;;;1999.90;999.90;;;17.10;1.00;;;;;;4878503;29;20063;-86
2022/10/29 06:20:09;;;;;;;1999.90;999.90;;;17.10;1.00;;;;;;4876637;29;20105;-87
2022/10/29 06:22:34;;;;;;;1999.90;999.90;;;17.20;1.00;;;;;;4877425;29;20053;-88
2022/10/29 06:25:00;;;;;;;1999.90;999.90;;;17.20;1.00;;;;;;4877707;29;20488;-87
2022/10/29 06:27:26;;;;;;;1999.90;999.90;;;17.30;1.00;;;;;;4877059;29;20108;-87
2022/10/29 06:29:51;;;;;;;1999.90;999.90;;;17.30;1.00;;;;;;4876087;29;20049;-87
2022/10/29 06:32:17;;;;;;;1999.90;999.90;;;17.30;1.00;;;;;;4861415;29;20056;-86
2022/10/29 06:34:43;;;;;;;1999.90;999.90;;;17.30;1.00;;;;;;4876636;29;20494;-86
2022/10/29 06:37:09;;;;;;;1999.90;999.90;;;17.40;1.00;;;;;;4875926;29;20518;-86
2022/10/29 06:39:34;;;;;;;1999.90;999.90;;;17.30;1.00;;;;;;4876378;29;20045;-87
2022/10/29 06:42:00;;;;;;;1999.90;999.90;;;17.40;1.00;;;;;;4861565;29;20085;-86
2022/10/29 06:44:25;;;;;;;1999.90;999.90;;;17.40;1.00;;;;;;4878000;29;20047;-86
2022/10/29 06:46:51;;;;;;;1999.90;999.90;;;17.30;1.00;;;;;;4861548;29;20060;-85
2022/10/29 06:49:17;;;;;;;1999.90;999.90;;;17.30;1.00;;;;;;4878040;29;20048;-86
2022/10/29 06:51:42;;;;;;;1999.90;999.90;;;17.40;1.00;;;;;;4859871;29;20053;-88
2022/10/29 06:54:08;;;;;;;1999.90;999.90;;;17.40;1.00;;;;;;4879172;29;20541;-87
2022/10/29 06:56:34;;;;;;;1999.90;999.90;;;17.40;1.00;;;;;;4881390;29;20502;-86
2022/10/29 06:58:59;;;;;;;1999.90;999.90;;;17.40;2.80;;;;;;4880918;29;20550;-86
2022/10/29 07:01:31;;;;;;;1999.90;999.90;;;17.40;1.00;;;;;;4879741;29;20231;-86
2022/10/29 07:03:58;;;;;;;1999.90;999.90;;;17.40;1.00;;;;;;4880989;29;20518;-87
2022/10/29 07:06:23;;;;;;;1999.90;999.90;;;17.40;1.00;;;;;;4881222;29;20052;-87
2022/10/29 07:08:49;;;;;;;1999.90;999.90;;;17.40;1.00;;;;;;4849223;29;20053;-89
2022/10/29 07:11:15;;;;;;;1999.90;999.90;;;17.40;6.30;;;;;;4880107;29;20128;-88
2022/10/29 07:13:41;;;;;;;1999.90;999.90;;;17.50;26.50;;;;;;4863604;29;20057;-87
2022/10/29 07:16:07;;;;;;;1999.90;999.90;;;17.50;9.30;;;;;;4880502;29;20071;-87
2022/10/29 07:18:32;;;;;;;1999.90;999.90;;;17.50;14.10;;;;;;4879023;29;20045;-89
2022/10/29 07:21:00;;;;;;;1999.90;999.90;;;17.60;16.10;;;;;;4880966;29;20049;-87
2022/10/29 07:23:26;;;;;;;1999.90;999.90;;;17.50;19.20;;;;;;4880588;29;20056;-88
2022/10/29 07:25:52;;;;;;;1999.90;999.90;;;17.50;47.00;;;;;;4864286;29;20049;-88
2022/10/29 07:28:20;;;;;;;1999.90;999.90;;;17.50;34.70;;;;;;4879262;29;20056;-87
2022/10/29 07:30:47;;;;;;;1999.90;999.90;;;17.70;35.40;;;;;;4880740;29;20069;-87
2022/10/29 07:33:14;;;;;;;1999.90;999.90;;;17.50;25.30;;;;;;4880737;29;20053;-87
2022/10/29 07:35:40;;;;;;;1999.90;999.90;;;17.60;25.50;;;;;;4878822;29;20403;-87
2022/10/29 07:38:07;;;;;;;1999.90;999.90;;;17.60;29.90;;;;;;4880920;29;20126;-87
2022/10/29 07:40:33;;;;;;;1999.90;999.90;;;17.70;45.70;;;;;;4880618;29;20487;-87
2022/10/29 07:42:59;;;;;;;1649.72;756.08;;;17.60;46.90;;;;;;4880263;29;20321;-87
2022/10/29 07:45:25;;;;;;;1999.90;999.90;;;17.60;68.80;;;;;;4879484;29;20426;-87
2022/10/29 07:47:59;;;;;;;1999.90;999.90;;;17.60;49.50;;;;;;4863820;29;20097;-87
2022/10/29 07:50:25;;;;;;;1999.90;999.90;;;17.60;70.60;;;;;;4878970;29;20407;-86
2022/10/29 07:52:50;;;;;;;1999.90;999.90;;;17.70;66.40;;;;;;4880009;29;20139;-86
2022/10/29 07:55:16;;;;;;;1999.90;999.90;;;17.60;60.20;;;;;;4880142;29;20190;-86
2022/10/29 07:57:42;;;;;;;1999.90;999.90;;;17.70;83.80;;;;;;4880181;29;20105;-86
2022/10/29 08:00:08;;;;;;;1999.90;999.90;;;17.60;91.10;;;;;;4881269;29;20056;-86
2022/10/29 08:02:33;;;;;;;1999.90;999.90;;;17.80;91.30;;;;;;4880911;29;20513;-86
2022/10/29 08:04:59;;;;;;;1999.90;999.90;;;17.70;78.80;;;;;;4879954;29;20045;-86
2022/10/29 08:07:25;;;;;;;1999.90;999.90;;;17.70;91.80;;;;;;4879865;29;20061;-86
2022/10/29 08:09:50;;;;;;;1999.90;999.90;;;17.90;83.40;;;;;;4880544;29;20057;-85
2022/10/29 08:12:16;;;;;;;1999.90;999.90;;;17.90;99.90;;;;;;4880412;29;20110;-86
2022/10/29 08:14:42;;;;;;;1999.90;999.90;;;17.80;92.90;;;;;;4880668;29;20128;-86
2022/10/29 08:17:07;;;;;;;1999.90;999.90;;;17.80;96.60;;;;;;4880140;29;20045;-86
2022/10/29 08:19:33;;;;;;;1999.90;999.90;;;17.80;99.90;;;;;;4880321;29;20053;-87
2022/10/29 08:21:59;;;;;;;1999.90;999.90;;;18.00;99.90;;;;;;4879116;29;20554;-86
2022/10/29 08:24:24;;;;;;;1999.90;999.90;;;17.90;99.90;;;;;;4879104;29;20133;-87
2022/10/29 08:26:50;;;;;;;1999.90;999.90;;;18.00;99.90;;;;;;4880202;29;20116;-86
2022/10/29 08:29:16;;;;;;;1999.90;999.90;;;18.10;95.90;;;;;;4878735;29;20045;-86
2022/10/29 08:31:41;;;;;;;1999.90;999.90;;;18.00;99.90;;;;;;4863759;29;20113;-86
2022/10/29 08:34:07;;;;;;;1999.90;999.90;;;18.10;99.90;;;;;;4848026;29;20053;-86
2022/10/29 08:36:33;;;;;;;1999.90;999.90;;;18.10;99.90;;;;;;4879674;29;20048;-86
2022/10/29 08:38:58;;;;;;;1999.90;999.90;;;18.10;91.60;;;;;;4863121;29;20049;-90
2022/10/29 08:41:35;;;;;;;1999.90;999.90;;;18.20;78.70;;;;;;4879626;29;20053;-85
2022/10/29 08:44:07;;;;;;;1999.90;999.90;;;18.10;91.20;;;;;;4879733;29;20099;-86
2022/10/29 08:47:03;;;;;;;1999.90;999.90;;;18.20;79.20;;;;;;4880053;29;20174;-84
2022/10/29 08:49:40;;;;;;;1999.90;999.90;;;18.30;93.00;;;;;;4879578;29;20136;-84
2022/10/29 08:52:22;;;;;;;1999.90;999.90;;;18.60;99.90;;;;;;4862952;29;20060;-85
2022/10/29 08:54:55;;;;;;;1999.90;999.90;;;18.80;99.90;;;;;;4879585;29;20045;-85
2022/10/29 08:57:24;;;;;;;1999.90;999.90;;;18.90;99.00;;;;;;4878357;29;20052;-84
2022/10/29 09:00:11;;;;;;;1999.90;999.90;;;19.00;31.30;;;;;;4879211;29;20175;-84
2022/10/29 09:02:39;;;;;;;1999.90;999.90;;;18.80;1.00;;;;;;4878844;29;20057;-84
2022/10/29 09:05:10;;;;;;;1999.90;999.90;;;18.80;1.00;;;;;;4877775;29;20096;-84
2022/10/29 09:07:50;;;;;;;1999.90;999.90;;;18.90;1.00;;;;;;4878392;29;20045;-84
2022/10/29 09:10:30;;;;;;;1999.90;999.90;;;18.80;99.90;;;;;;4862779;29;20052;-84
2022/10/29 09:12:56;;;;;;;1999.90;999.90;;;18.90;99.90;;;;;;4879537;29;20045;-84
2022/10/29 09:15:35;;;;;;;1999.90;999.90;;;19.10;99.90;;;;;;4878904;29;20045;-84
2022/10/29 09:18:03;;;;;;;1999.90;999.90;;;19.10;99.90;;;;;;4879229;29;20187;-84
2022/10/29 09:20:38;;;;;;;1999.90;999.90;;;19.00;99.90;;;;;;4862532;29;20053;-84
2022/10/29 09:23:21;;;;;;;1999.90;999.90;;;19.00;99.90;;;;;;4879251;29;20141;-88
2022/10/29 09:25:56;;;;;;;1999.90;999.90;;;19.10;59.80;;;;;;4879046;29;20076;-84
2022/10/29 09:29:00;;;;;;;1999.90;999.90;;;19.00;1.00;;;;;;4861845;29;20427;-84
2022/10/29 09:31:33;;;;;;;1999.90;999.90;;;19.20;1.00;;;;;;4876262;29;20113;-83
2022/10/29 09:34:09;;;;;;;1999.90;999.90;;;19.10;99.90;;;;;;4878994;29;20488;-84
2022/10/29 09:36:35;;;;;;;1999.90;999.90;;;19.10;99.90;;;;;;4878877;29;20048;-84
2022/10/29 09:39:09;;;;;;;1999.90;999.90;;;19.10;99.90;;;;;;4878562;29;20053;-84
2022/10/29 09:41:36;;;;;;;1999.90;999.90;;;19.20;99.90;;;;;;4862411;29;20057;-84
2022/10/29 09:44:32;;;;;;;1999.90;999.90;;;19.20;98.00;;;;;;4877883;29;20053;-84
2022/10/29 09:47:21;;;;;;;1999.90;999.90;;;19.30;61.50;;;;;;4878916;29;20063;-84
2022/10/29 09:50:12;;;;;;;1999.90;999.90;;;19.20;38.80;;;;;;4875218;29;20053;-87
2022/10/29 09:52:43;;;;;;;1999.90;999.90;;;19.40;1.20;;;;;;4877638;29;20045;-86
2022/10/29 09:55:25;;;;;;;1999.90;999.90;;;19.50;1.00;;;;;;4877569;29;20120;-90
2022/10/29 09:57:53;;;;;;;1999.90;999.90;;;19.80;1.00;;;;;;4876287;29;20041;-87
2022/10/29 10:00:22;;;;;;;1999.90;999.90;;;19.90;99.90;;;;;;4874201;29;20056;-87
2022/10/29 10:02:55;;;;;;;1999.90;999.90;;;20.20;99.90;;;;;;4876890;29;20499;-85
2022/10/29 10:05:28;;;;;;;1999.90;999.90;;;20.20;99.90;;;;;;4876553;29;20503;-85
2022/10/29 10:08:12;;;;;;;1999.90;999.90;;;20.40;61.80;;;;;;4877608;29;20052;-86
2022/10/29 10:10:51;;;;;;;1999.90;999.90;;;20.40;1.00;;;;;;4877634;29;20503;-85
2022/10/29 10:13:17;;;;;;;;;;;20.40;99.90;;;;;;4877201;29;20056;-85
2022/10/29 10:15:51;;;;;;;1999.90;999.90;;;20.40;99.90;;;;;;4876182;29;20437;-87
2022/10/29 10:18:26;;;;;;;1999.90;999.90;;;20.40;90.00;;;;;;4876965;29;20053;-84
2022/10/29 10:21:07;;;;;;;1999.90;999.90;;;20.40;99.90;;;;;;4877537;29;20048;-85
2022/10/29 10:23:43;;;;;;;1999.90;999.90;;;20.40;99.90;;;;;;4877366;29;20135;-86
2022/10/29 10:26:34;;;;;;;1999.90;999.90;;;20.50;99.90;;;;;;4878133;29;20049;-87
2022/10/29 10:29:15;;;;;;;1999.90;999.90;;;20.40;45.50;;;;;;4864766;29;20045;-85
2022/10/29 10:31:43;;;;;;;1999.90;999.90;;;20.50;42.10;;;;;;4879787;29;20064;-86
2022/10/29 10:34:17;;;;;;;1999.90;999.90;;;20.60;1.00;;;;;;4864892;29;20486;-86
2022/10/29 10:36:47;;;;;;;1999.90;999.90;;;20.60;1.00;;;;;;4881708;29;20053;-87
2022/10/29 10:39:27;;;;;;;1999.90;999.90;;;20.70;99.90;;;;;;4864164;29;20049;-86
2022/10/29 10:41:55;;;;;;;1999.90;999.90;;;20.80;1.00;;;;;;4864546;29;20045;-85
2022/10/29 10:44:22;;;;;;;1999.90;999.90;;;21.10;99.90;;;;;;4881002;29;20052;-85
2022/10/29 10:46:51;;;;;;;1999.90;999.90;;;21.10;99.90;;;;;;4881313;29;20081;-86
2022/10/29 10:49:21;;;;;;;1999.90;999.90;;;21.30;99.90;;;;;;4881505;29;20055;-88
2022/10/29 10:51:53;;;;;;;1999.90;999.90;;;21.30;99.90;;;;;;4863964;29;20513;-84
2022/10/29 10:54:40;;;;;;;1999.90;999.90;;;21.40;99.90;;;;;;4864263;29;20104;-86
2022/10/29 10:57:09;;;;;;;1999.90;999.90;;;21.40;99.90;;;;;;4864816;29;20041;-87
2022/10/29 10:59:41;;;;;;;1999.90;999.90;;;21.40;1.00;;;;;;4880874;29;20056;-85
2022/10/29 11:02:33;;;;;;;1999.90;999.90;;;21.40;1.00;;;;;;4863685;29;20048;-85
2022/10/29 11:05:15;;;;;;;1999.90;999.90;;;21.40;1.00;;;;;;4880172;29;20045;-84
2022/10/29 11:07:45;;;;;;;1999.90;999.90;;;21.40;99.90;;;;;;4880902;29;20114;-83
2022/10/29 11:10:15;;;;;;;1999.90;999.90;;;21.40;99.90;;;;;;4880038;29;20049;-84
2022/10/29 11:12:47;;;;;;;1999.90;999.90;;;21.50;99.90;;;;;;4862715;29;20063;-83
2022/10/29 11:15:23;;;;;;;1999.90;999.90;;;21.60;99.90;;;;;;4880902;29;20045;-86
2022/10/29 11:17:48;;;;;;;1999.90;999.90;;;21.70;99.90;;;;;;4879901;29;20051;-88
2022/10/29 11:20:25;;;;;;;1999.90;999.90;;;21.70;1.00;;;;;;4880712;29;20053;-87
2022/10/29 11:23:13;;;;;;;1999.90;999.90;;;21.70;1.00;;;;;;4879701;29;20060;-86
2022/10/29 11:25:52;;;;;;;1999.90;999.90;;;21.70;99.90;;;;;;4862333;29;20064;-87
2022/10/29 11:28:30;;;;;;;1999.90;999.90;;;21.70;99.90;;;;;;4880649;29;20071;-86
2022/10/29 11:31:17;;;;;;;1999.90;999.90;;;21.80;99.90;;;;;;4880846;29;20109;-88
2022/10/29 11:33:57;;;;;;;1999.90;999.90;;;21.90;99.90;;;;;;4863381;29;20053;-87
2022/10/29 11:36:25;;;;;;;1999.90;999.90;;;22.10;36.00;;;;;;4879912;29;20049;-88
2022/10/29 11:39:30;;;;;;;1999.90;999.90;;;22.20;1.00;;;;;;4879947;29;20057;-91
2022/10/29 11:42:00;;;;;;;1999.90;999.90;;;22.30;1.00;;;;;;4880541;29;20059;-91
2022/10/29 11:44:28;;;;;;;1999.90;999.90;;;22.10;99.90;;;;;;4864844;29;20061;-91
2022/10/29 11:47:12;;;;;;;1999.90;999.90;;;22.10;99.90;;;;;;4885767;29;20045;-88
2022/10/29 11:50:02;;;;;;;1999.90;999.90;;;22.00;99.90;;;;;;4865245;29;20444;-91
2022/10/29 11:52:31;;;;;;;1999.90;999.90;;;22.10;99.90;;;;;;4881651;29;20086;-93
2022/10/29 11:55:10;;;;;;;1999.90;999.90;;;22.20;99.90;;;;;;4865533;29;20398;-95
2022/10/29 11:57:49;;;;;;;1999.90;999.90;;;22.30;87.20;;;;;;4881075;29;20041;-93
2022/10/29 12:00:18;;;;;;;1999.90;999.90;;;22.40;18.90;;;;;;4880794;29;20069;-92
2022/10/29 12:03:02;;;;;;;1999.90;999.90;;;22.50;79.20;;;;;;4878769;29;20139;-92
2022/10/29 12:05:46;;;;;;;1999.90;999.90;;;22.50;1.00;;;;;;4879652;29;20313;-85
2022/10/29 12:08:20;;;;;;;1999.90;999.90;;;22.50;1.00;;;;;;4863901;29;20494;-86
2022/10/29 12:10:45;;;;;;;1999.90;999.90;;;22.50;1.00;;;;;;4880491;29;20044;-83
2022/10/29 12:13:37;;;;;;;1999.90;999.90;;;22.50;1.00;;;;;;4879402;29;20056;-86
2022/10/29 12:16:18;;;;;;;1999.90;999.90;;;22.50;1.00;;;;;;4878281;29;20418;-85